sensor_id;sensor_type;location;lat;lon;timestamp;P1;durP1;ratioP1;P2;durP2;ratioP2
32639;SDS011;19049;52.524;11.468;2022-10-04T00:01:31;4.03;;;1.20;;
32639;SDS011;19049;52.524;11.468;2022-10-04T00:04:09;4.43;;;1.47;;
32639;SDS011;19049;52.524;11.468;2022-10-04T00:06:44;3.27;;;1.00;;
32639;SDS011;19049;52.524;11.468;2022-10-04T00:09:22;4.77;;;1.30;;
32639;SDS011;19049;52.524;11.468;2022-10-04T00:11:51;1.77;;;0.90;;
32639;SDS011;19049;52.524;11.468;2022-10-04T00:14:32;5.50;;;1.00;;
32639;SDS011;19049;52.524;11.468;2022-10-04T00:17:13;3.03;;;0.73;;
32639;SDS011;19049;52.524;11.468;2022-10-04T00:19:51;2.90;;;0.93;;
32639;SDS011;19049;52.524;11.468;2022-10-04T00:22:26;3.53;;;1.13;;
32639;SDS011;19049;52.524;11.468;2022-10-04T00:25:16;1.37;;;0.80;;
32639;SDS011;19049;52.524;11.468;2022-10-04T00:33:41;1.47;;;0.70;;
32639;SDS011;19049;52.524;11.468;2022-10-04T00:44:09;2.37;;;0.80;;
32639;SDS011;19049;52.524;11.468;2022-10-04T00:46:48;1.83;;;0.90;;
32639;SDS011;19049;52.524;11.468;2022-10-04T00:49:19;2.00;;;0.70;;
32639;SDS011;19049;52.524;11.468;2022-10-04T00:51:55;1.90;;;1.07;;
32639;SDS011;19049;52.524;11.468;2022-10-04T00:54:34;2.07;;;0.90;;
32639;SDS011;19049;52.524;11.468;2022-10-04T00:57:14;2.93;;;0.97;;
32639;SDS011;19049;52.524;11.468;2022-10-04T01:00:07;0.90;;;0.70;;
32639;SDS011;19049;52.524;11.468;2022-10-04T01:05:23;2.83;;;1.10;;
32639;SDS011;19049;52.524;11.468;2022-10-04T01:08:03;7.33;;;1.83;;
32639;SDS011;19049;52.524;11.468;2022-10-04T01:10:41;3.70;;;1.47;;
32639;SDS011;19049;52.524;11.468;2022-10-04T01:13:15;3.10;;;1.10;;
32639;SDS011;19049;52.524;11.468;2022-10-04T01:18:33;4.20;;;1.03;;
32639;SDS011;19049;52.524;11.468;2022-10-04T01:21:02;2.60;;;0.90;;
32639;SDS011;19049;52.524;11.468;2022-10-04T01:26:33;2.93;;;1.00;;
32639;SDS011;19049;52.524;11.468;2022-10-04T01:31:35;3.00;;;1.17;;
32639;SDS011;19049;52.524;11.468;2022-10-04T01:34:03;2.50;;;1.10;;
32639;SDS011;19049;52.524;11.468;2022-10-04T01:36:30;5.17;;;1.17;;
32639;SDS011;19049;52.524;11.468;2022-10-04T01:39:02;2.30;;;0.93;;
32639;SDS011;19049;52.524;11.468;2022-10-04T01:41:34;5.33;;;1.30;;
32639;SDS011;19049;52.524;11.468;2022-10-04T01:44:02;3.67;;;1.27;;
32639;SDS011;19049;52.524;11.468;2022-10-04T01:46:36;3.77;;;1.30;;
32639;SDS011;19049;52.524;11.468;2022-10-04T01:49:04;2.90;;;1.37;;
32639;SDS011;19049;52.524;11.468;2022-10-04T01:51:37;4.27;;;1.23;;
32639;SDS011;19049;52.524;11.468;2022-10-04T01:54:13;4.23;;;1.60;;
32639;SDS011;19049;52.524;11.468;2022-10-04T01:56:47;2.73;;;1.30;;
32639;SDS011;19049;52.524;11.468;2022-10-04T01:59:39;5.17;;;1.57;;
32639;SDS011;19049;52.524;11.468;2022-10-04T02:02:17;4.00;;;1.47;;
32639;SDS011;19049;52.524;11.468;2022-10-04T02:04:54;3.80;;;1.20;;
32639;SDS011;19049;52.524;11.468;2022-10-04T02:07:23;3.53;;;1.40;;
32639;SDS011;19049;52.524;11.468;2022-10-04T02:09:56;5.17;;;1.33;;
32639;SDS011;19049;52.524;11.468;2022-10-04T02:12:26;4.90;;;1.20;;
32639;SDS011;19049;52.524;11.468;2022-10-04T02:14:58;2.70;;;1.33;;
32639;SDS011;19049;52.524;11.468;2022-10-04T02:17:30;2.23;;;0.80;;
32639;SDS011;19049;52.524;11.468;2022-10-04T02:20:07;1.83;;;0.87;;
32639;SDS011;19049;52.524;11.468;2022-10-04T02:22:43;6.23;;;1.60;;
32639;SDS011;19049;52.524;11.468;2022-10-04T02:25:22;5.03;;;2.03;;
32639;SDS011;19049;52.524;11.468;2022-10-04T02:27:51;2.03;;;1.30;;
32639;SDS011;19049;52.524;11.468;2022-10-04T02:30:20;3.07;;;1.10;;
32639;SDS011;19049;52.524;11.468;2022-10-04T02:32:46;2.47;;;1.30;;
32639;SDS011;19049;52.524;11.468;2022-10-04T02:35:32;2.47;;;1.20;;
32639;SDS011;19049;52.524;11.468;2022-10-04T02:38:24;3.67;;;1.40;;
32639;SDS011;19049;52.524;11.468;2022-10-04T02:41:01;4.87;;;1.40;;
32639;SDS011;19049;52.524;11.468;2022-10-04T02:43:36;3.60;;;1.30;;
32639;SDS011;19049;52.524;11.468;2022-10-04T02:46:20;5.63;;;1.60;;
32639;SDS011;19049;52.524;11.468;2022-10-04T02:48:52;4.17;;;1.50;;
32639;SDS011;19049;52.524;11.468;2022-10-04T02:51:39;3.27;;;1.40;;
32639;SDS011;19049;52.524;11.468;2022-10-04T02:56:55;2.37;;;1.37;;
32639;SDS011;19049;52.524;11.468;2022-10-04T02:59:22;4.17;;;1.60;;
32639;SDS011;19049;52.524;11.468;2022-10-04T03:01:59;3.83;;;1.40;;
32639;SDS011;19049;52.524;11.468;2022-10-04T03:04:26;1.17;;;1.00;;
32639;SDS011;19049;52.524;11.468;2022-10-04T03:06:55;1.97;;;0.80;;
32639;SDS011;19049;52.524;11.468;2022-10-04T03:09:23;5.43;;;1.40;;
32639;SDS011;19049;52.524;11.468;2022-10-04T03:11:57;2.33;;;1.33;;
32639;SDS011;19049;52.524;11.468;2022-10-04T03:14:35;2.23;;;1.03;;
32639;SDS011;19049;52.524;11.468;2022-10-04T03:17:03;2.57;;;1.00;;
32639;SDS011;19049;52.524;11.468;2022-10-04T03:19:32;2.60;;;1.20;;
32639;SDS011;19049;52.524;11.468;2022-10-04T03:22:09;4.03;;;1.20;;
32639;SDS011;19049;52.524;11.468;2022-10-04T03:24:46;1.50;;;1.07;;
32639;SDS011;19049;52.524;11.468;2022-10-04T03:27:15;1.43;;;0.70;;
32639;SDS011;19049;52.524;11.468;2022-10-04T03:29:44;1.27;;;1.13;;
32639;SDS011;19049;52.524;11.468;2022-10-04T03:32:14;1.43;;;0.90;;
32639;SDS011;19049;52.524;11.468;2022-10-04T03:35:26;2.03;;;1.27;;
32639;SDS011;19049;52.524;11.468;2022-10-04T03:37:41;2.20;;;1.20;;
32639;SDS011;19049;52.524;11.468;2022-10-04T03:40:08;1.30;;;1.10;;
32639;SDS011;19049;52.524;11.468;2022-10-04T03:42:35;2.43;;;1.40;;
32639;SDS011;19049;52.524;11.468;2022-10-04T03:45:07;2.43;;;1.53;;
32639;SDS011;19049;52.524;11.468;2022-10-04T03:47:43;1.93;;;1.57;;
32639;SDS011;19049;52.524;11.468;2022-10-04T03:50:14;2.67;;;1.43;;
32639;SDS011;19049;52.524;11.468;2022-10-04T03:52:52;2.00;;;1.67;;
32639;SDS011;19049;52.524;11.468;2022-10-04T03:55:23;2.37;;;1.57;;
32639;SDS011;19049;52.524;11.468;2022-10-04T03:57:56;2.90;;;1.70;;
32639;SDS011;19049;52.524;11.468;2022-10-04T04:00:23;2.57;;;1.90;;
32639;SDS011;19049;52.524;11.468;2022-10-04T04:02:51;2.30;;;1.60;;
32639;SDS011;19049;52.524;11.468;2022-10-04T04:08:05;5.47;;;1.90;;
32639;SDS011;19049;52.524;11.468;2022-10-04T04:10:42;3.27;;;2.27;;
32639;SDS011;19049;52.524;11.468;2022-10-04T04:13:24;5.80;;;2.43;;
32639;SDS011;19049;52.524;11.468;2022-10-04T04:16:07;4.30;;;2.20;;
32639;SDS011;19049;52.524;11.468;2022-10-04T04:18:38;3.33;;;2.57;;
32639;SDS011;19049;52.524;11.468;2022-10-04T04:21:07;3.80;;;2.10;;
32639;SDS011;19049;52.524;11.468;2022-10-04T04:23:42;6.13;;;2.17;;
32639;SDS011;19049;52.524;11.468;2022-10-04T04:26:22;1.73;;;1.60;;
32639;SDS011;19049;52.524;11.468;2022-10-04T04:34:00;4.70;;;2.43;;
32639;SDS011;19049;52.524;11.468;2022-10-04T04:36:32;6.00;;;1.77;;
32639;SDS011;19049;52.524;11.468;2022-10-04T04:39:27;2.97;;;2.13;;
32639;SDS011;19049;52.524;11.468;2022-10-04T04:42:01;1.70;;;1.60;;
32639;SDS011;19049;52.524;11.468;2022-10-04T04:44:35;3.57;;;1.80;;
32639;SDS011;19049;52.524;11.468;2022-10-04T04:47:06;5.23;;;2.13;;
32639;SDS011;19049;52.524;11.468;2022-10-04T04:49:36;6.20;;;2.17;;
32639;SDS011;19049;52.524;11.468;2022-10-04T04:52:04;3.57;;;1.80;;
32639;SDS011;19049;52.524;11.468;2022-10-04T04:54:30;5.77;;;2.30;;
32639;SDS011;19049;52.524;11.468;2022-10-04T04:56:56;4.50;;;1.60;;
32639;SDS011;19049;52.524;11.468;2022-10-04T04:59:25;3.20;;;1.77;;
32639;SDS011;19049;52.524;11.468;2022-10-04T05:02:31;2.23;;;1.60;;
32639;SDS011;19049;52.524;11.468;2022-10-04T05:08:02;3.07;;;1.70;;
32639;SDS011;19049;52.524;11.468;2022-10-04T05:10:37;7.27;;;1.57;;
32639;SDS011;19049;52.524;11.468;2022-10-04T05:13:07;4.40;;;2.10;;
32639;SDS011;19049;52.524;11.468;2022-10-04T05:15:36;3.03;;;1.70;;
32639;SDS011;19049;52.524;11.468;2022-10-04T05:20:50;1.77;;;1.33;;
32639;SDS011;19049;52.524;11.468;2022-10-04T05:23:17;6.97;;;1.87;;
32639;SDS011;19049;52.524;11.468;2022-10-04T05:25:43;1.40;;;1.30;;
32639;SDS011;19049;52.524;11.468;2022-10-04T05:28:12;5.30;;;1.80;;
32639;SDS011;19049;52.524;11.468;2022-10-04T05:33:47;3.73;;;1.70;;
32639;SDS011;19049;52.524;11.468;2022-10-04T05:36:37;3.13;;;1.50;;
32639;SDS011;19049;52.524;11.468;2022-10-04T05:47:15;4.93;;;1.90;;
32639;SDS011;19049;52.524;11.468;2022-10-04T05:49:48;6.87;;;2.20;;
32639;SDS011;19049;52.524;11.468;2022-10-04T05:55:14;5.10;;;1.80;;
32639;SDS011;19049;52.524;11.468;2022-10-04T06:06:40;3.87;;;1.37;;
32639;SDS011;19049;52.524;11.468;2022-10-04T06:09:41;3.43;;;1.63;;
32639;SDS011;19049;52.524;11.468;2022-10-04T06:23:26;2.80;;;1.47;;
32639;SDS011;19049;52.524;11.468;2022-10-04T06:25:58;3.83;;;1.10;;
32639;SDS011;19049;52.524;11.468;2022-10-04T06:28:38;2.77;;;1.47;;
32639;SDS011;19049;52.524;11.468;2022-10-04T06:37:09;1.87;;;1.10;;
32639;SDS011;19049;52.524;11.468;2022-10-04T06:40:08;5.03;;;1.37;;
32639;SDS011;19049;52.524;11.468;2022-10-04T06:53:46;3.77;;;1.40;;
32639;SDS011;19049;52.524;11.468;2022-10-04T06:56:46;5.07;;;2.07;;
32639;SDS011;19049;52.524;11.468;2022-10-04T06:59:23;5.23;;;1.50;;
32639;SDS011;19049;52.524;11.468;2022-10-04T07:02:04;5.23;;;1.87;;
32639;SDS011;19049;52.524;11.468;2022-10-04T07:07:41;3.63;;;1.60;;
32639;SDS011;19049;52.524;11.468;2022-10-04T07:15:32;5.03;;;1.50;;
32639;SDS011;19049;52.524;11.468;2022-10-04T07:18:07;2.60;;;1.47;;
32639;SDS011;19049;52.524;11.468;2022-10-04T07:20:39;2.80;;;1.60;;
32639;SDS011;19049;52.524;11.468;2022-10-04T07:23:15;5.87;;;1.73;;
32639;SDS011;19049;52.524;11.468;2022-10-04T07:25:53;4.77;;;1.40;;
32639;SDS011;19049;52.524;11.468;2022-10-04T07:28:38;4.83;;;1.40;;
32639;SDS011;19049;52.524;11.468;2022-10-04T07:31:30;4.67;;;1.30;;
32639;SDS011;19049;52.524;11.468;2022-10-04T07:34:02;4.73;;;1.63;;
32639;SDS011;19049;52.524;11.468;2022-10-04T07:40:00;7.80;;;1.53;;
32639;SDS011;19049;52.524;11.468;2022-10-04T07:42:28;2.80;;;1.50;;
32639;SDS011;19049;52.524;11.468;2022-10-04T07:45:29;5.30;;;2.37;;
32639;SDS011;19049;52.524;11.468;2022-10-04T07:48:03;8.63;;;4.13;;
32639;SDS011;19049;52.524;11.468;2022-10-04T07:56:34;3.73;;;1.43;;
32639;SDS011;19049;52.524;11.468;2022-10-04T08:01:54;3.53;;;1.50;;
32639;SDS011;19049;52.524;11.468;2022-10-04T08:07:49;4.23;;;1.50;;
32639;SDS011;19049;52.524;11.468;2022-10-04T08:13:09;6.10;;;2.10;;
32639;SDS011;19049;52.524;11.468;2022-10-04T08:16:00;5.10;;;1.80;;
32639;SDS011;19049;52.524;11.468;2022-10-04T08:18:37;4.43;;;1.80;;
32639;SDS011;19049;52.524;11.468;2022-10-04T08:21:19;4.07;;;1.53;;
32639;SDS011;19049;52.524;11.468;2022-10-04T08:27:29;4.33;;;1.83;;
32639;SDS011;19049;52.524;11.468;2022-10-04T08:30:40;2.43;;;1.40;;
32639;SDS011;19049;52.524;11.468;2022-10-04T08:33:11;5.53;;;1.77;;
32639;SDS011;19049;52.524;11.468;2022-10-04T08:58:11;1.87;;;1.33;;
32639;SDS011;19049;52.524;11.468;2022-10-04T09:06:49;3.60;;;1.50;;
32639;SDS011;19049;52.524;11.468;2022-10-04T09:21:10;5.70;;;2.13;;
32639;SDS011;19049;52.524;11.468;2022-10-04T09:23:46;3.70;;;1.60;;
32639;SDS011;19049;52.524;11.468;2022-10-04T09:26:43;3.07;;;1.10;;
32639;SDS011;19049;52.524;11.468;2022-10-04T09:29:28;3.50;;;1.20;;
32639;SDS011;19049;52.524;11.468;2022-10-04T09:43:08;3.43;;;1.30;;
32639;SDS011;19049;52.524;11.468;2022-10-04T09:45:46;5.63;;;1.50;;
32639;SDS011;19049;52.524;11.468;2022-10-04T10:00:07;3.93;;;1.37;;
32639;SDS011;19049;52.524;11.468;2022-10-04T10:02:58;3.63;;;1.33;;
32639;SDS011;19049;52.524;11.468;2022-10-04T10:16:48;4.00;;;0.90;;
32639;SDS011;19049;52.524;11.468;2022-10-04T10:22:40;3.23;;;1.03;;
32639;SDS011;19049;52.524;11.468;2022-10-04T10:28:17;3.97;;;1.00;;
32639;SDS011;19049;52.524;11.468;2022-10-04T11:02:47;3.60;;;0.80;;
32639;SDS011;19049;52.524;11.468;2022-10-04T11:05:50;2.83;;;0.80;;
32639;SDS011;19049;52.524;11.468;2022-10-04T11:11:43;3.27;;;1.13;;
32639;SDS011;19049;52.524;11.468;2022-10-04T11:41:59;4.73;;;1.07;;
32639;SDS011;19049;52.524;11.468;2022-10-04T11:44:33;2.63;;;0.90;;
32639;SDS011;19049;52.524;11.468;2022-10-04T11:52:47;3.73;;;0.93;;
32639;SDS011;19049;52.524;11.468;2022-10-04T12:07:05;3.27;;;0.90;;
32639;SDS011;19049;52.524;11.468;2022-10-04T12:10:09;2.63;;;1.30;;
32639;SDS011;19049;52.524;11.468;2022-10-04T12:18:01;5.00;;;1.40;;
32639;SDS011;19049;52.524;11.468;2022-10-04T12:31:32;2.60;;;1.57;;
32639;SDS011;19049;52.524;11.468;2022-10-04T12:50:52;2.40;;;0.70;;
32639;SDS011;19049;52.524;11.468;2022-10-04T12:59:03;1.87;;;0.50;;
32639;SDS011;19049;52.524;11.468;2022-10-04T13:02:13;2.00;;;0.70;;
32639;SDS011;19049;52.524;11.468;2022-10-04T13:10:03;1.47;;;0.60;;
32639;SDS011;19049;52.524;11.468;2022-10-04T13:18:17;2.07;;;0.70;;
32639;SDS011;19049;52.524;11.468;2022-10-04T13:21:04;3.33;;;1.20;;
32639;SDS011;19049;52.524;11.468;2022-10-04T13:23:57;1.63;;;0.50;;
32639;SDS011;19049;52.524;11.468;2022-10-04T13:29:10;1.03;;;0.80;;
32639;SDS011;19049;52.524;11.468;2022-10-04T13:31:54;1.13;;;0.70;;
32639;SDS011;19049;52.524;11.468;2022-10-04T13:40:43;1.50;;;0.70;;
32639;SDS011;19049;52.524;11.468;2022-10-04T13:42:51;1.27;;;0.50;;
32639;SDS011;19049;52.524;11.468;2022-10-04T13:51:24;1.37;;;0.63;;
32639;SDS011;19049;52.524;11.468;2022-10-04T13:54:21;1.83;;;0.57;;
32639;SDS011;19049;52.524;11.468;2022-10-04T13:57:17;2.87;;;0.67;;
32639;SDS011;19049;52.524;11.468;2022-10-04T14:02:34;1.57;;;0.33;;
32639;SDS011;19049;52.524;11.468;2022-10-04T14:18:01;2.00;;;0.60;;
32639;SDS011;19049;52.524;11.468;2022-10-04T14:21:01;1.30;;;0.60;;
32639;SDS011;19049;52.524;11.468;2022-10-04T14:29:23;1.20;;;0.60;;
32639;SDS011;19049;52.524;11.468;2022-10-04T14:35:22;1.87;;;0.60;;
32639;SDS011;19049;52.524;11.468;2022-10-04T14:38:17;2.87;;;0.50;;
32639;SDS011;19049;52.524;11.468;2022-10-04T14:43:57;3.30;;;0.40;;
32639;SDS011;19049;52.524;11.468;2022-10-04T14:46:43;1.03;;;0.50;;
32639;SDS011;19049;52.524;11.468;2022-10-04T14:52:22;1.70;;;0.50;;
32639;SDS011;19049;52.524;11.468;2022-10-04T14:55:07;0.77;;;0.50;;
32639;SDS011;19049;52.524;11.468;2022-10-04T15:12:21;1.27;;;0.63;;
32639;SDS011;19049;52.524;11.468;2022-10-04T15:45:47;2.77;;;0.43;;
32639;SDS011;19049;52.524;11.468;2022-10-04T16:03:30;0.70;;;0.50;;
32639;SDS011;19049;52.524;11.468;2022-10-04T16:06:03;0.40;;;0.30;;
32639;SDS011;19049;52.524;11.468;2022-10-04T16:14:59;2.00;;;0.40;;
32639;SDS011;19049;52.524;11.468;2022-10-04T16:23:27;0.63;;;0.50;;
32639;SDS011;19049;52.524;11.468;2022-10-04T16:26:00;1.10;;;0.50;;
32639;SDS011;19049;52.524;11.468;2022-10-04T16:34:07;0.37;;;0.37;;
32639;SDS011;19049;52.524;11.468;2022-10-04T16:46:01;1.00;;;0.30;;
32639;SDS011;19049;52.524;11.468;2022-10-04T16:50:48;2.40;;;0.50;;
32639;SDS011;19049;52.524;11.468;2022-10-04T16:53:29;0.90;;;0.40;;
32639;SDS011;19049;52.524;11.468;2022-10-04T16:56:21;1.07;;;0.40;;
32639;SDS011;19049;52.524;11.468;2022-10-04T16:59:02;0.70;;;0.40;;
32639;SDS011;19049;52.524;11.468;2022-10-04T17:01:42;0.57;;;0.30;;
32639;SDS011;19049;52.524;11.468;2022-10-04T17:12:41;1.00;;;0.43;;
32639;SDS011;19049;52.524;11.468;2022-10-04T17:23:18;2.17;;;0.67;;
32639;SDS011;19049;52.524;11.468;2022-10-04T17:28:58;3.47;;;0.70;;
32639;SDS011;19049;52.524;11.468;2022-10-04T17:31:58;0.87;;;0.50;;
32639;SDS011;19049;52.524;11.468;2022-10-04T17:48:20;2.47;;;0.40;;
32639;SDS011;19049;52.524;11.468;2022-10-04T17:54:14;1.13;;;0.63;;
32639;SDS011;19049;52.524;11.468;2022-10-04T17:57:12;1.13;;;0.60;;
32639;SDS011;19049;52.524;11.468;2022-10-04T17:59:43;0.67;;;0.50;;
32639;SDS011;19049;52.524;11.468;2022-10-04T18:02:21;1.10;;;0.50;;
32639;SDS011;19049;52.524;11.468;2022-10-04T18:04:55;2.80;;;0.50;;
32639;SDS011;19049;52.524;11.468;2022-10-04T18:07:26;0.80;;;0.50;;
32639;SDS011;19049;52.524;11.468;2022-10-04T18:10:02;0.70;;;0.60;;
32639;SDS011;19049;52.524;11.468;2022-10-04T18:12:51;1.23;;;0.50;;
32639;SDS011;19049;52.524;11.468;2022-10-04T18:15:26;3.97;;;0.80;;
32639;SDS011;19049;52.524;11.468;2022-10-04T18:25:57;1.00;;;0.60;;
32639;SDS011;19049;52.524;11.468;2022-10-04T18:28:27;0.67;;;0.47;;
32639;SDS011;19049;52.524;11.468;2022-10-04T18:33:45;2.07;;;0.70;;
32639;SDS011;19049;52.524;11.468;2022-10-04T18:36:16;3.13;;;0.80;;
32639;SDS011;19049;52.524;11.468;2022-10-04T18:41:58;0.87;;;0.60;;
32639;SDS011;19049;52.524;11.468;2022-10-04T18:44:44;2.07;;;0.90;;
32639;SDS011;19049;52.524;11.468;2022-10-04T18:47:32;1.40;;;0.83;;
32639;SDS011;19049;52.524;11.468;2022-10-04T19:04:08;2.23;;;0.90;;
32639;SDS011;19049;52.524;11.468;2022-10-04T19:06:42;1.33;;;1.00;;
32639;SDS011;19049;52.524;11.468;2022-10-04T19:09:21;1.10;;;1.00;;
32639;SDS011;19049;52.524;11.468;2022-10-04T19:12:15;1.63;;;0.80;;
32639;SDS011;19049;52.524;11.468;2022-10-04T19:22:52;2.83;;;1.07;;
32639;SDS011;19049;52.524;11.468;2022-10-04T19:30:53;2.13;;;1.30;;
32639;SDS011;19049;52.524;11.468;2022-10-04T19:33:51;3.43;;;1.23;;
32639;SDS011;19049;52.524;11.468;2022-10-04T19:42:22;1.93;;;1.37;;
32639;SDS011;19049;52.524;11.468;2022-10-04T19:47:41;1.90;;;1.30;;
32639;SDS011;19049;52.524;11.468;2022-10-04T19:53:02;2.10;;;1.40;;
32639;SDS011;19049;52.524;11.468;2022-10-04T20:00:52;1.80;;;1.40;;
32639;SDS011;19049;52.524;11.468;2022-10-04T20:03:19;1.43;;;1.33;;
32639;SDS011;19049;52.524;11.468;2022-10-04T20:05:48;4.57;;;1.70;;
32639;SDS011;19049;52.524;11.468;2022-10-04T20:11:22;2.23;;;1.20;;
32639;SDS011;19049;52.524;11.468;2022-10-04T20:21:46;1.97;;;1.40;;
32639;SDS011;19049;52.524;11.468;2022-10-04T20:24:16;4.97;;;1.57;;
32639;SDS011;19049;52.524;11.468;2022-10-04T20:34:50;1.90;;;1.20;;
32639;SDS011;19049;52.524;11.468;2022-10-04T20:37:17;3.77;;;1.50;;
32639;SDS011;19049;52.524;11.468;2022-10-04T20:42:09;1.87;;;1.33;;
32639;SDS011;19049;52.524;11.468;2022-10-04T20:45:02;4.37;;;1.40;;
32639;SDS011;19049;52.524;11.468;2022-10-04T20:49:58;3.80;;;1.40;;
32639;SDS011;19049;52.524;11.468;2022-10-04T20:52:27;2.27;;;1.50;;
32639;SDS011;19049;52.524;11.468;2022-10-04T20:54:56;1.53;;;1.13;;
32639;SDS011;19049;52.524;11.468;2022-10-04T20:57:25;2.70;;;1.50;;
32639;SDS011;19049;52.524;11.468;2022-10-04T20:59:54;3.13;;;1.73;;
32639;SDS011;19049;52.524;11.468;2022-10-04T21:02:22;2.37;;;1.63;;
32639;SDS011;19049;52.524;11.468;2022-10-04T21:04:49;2.43;;;1.53;;
32639;SDS011;19049;52.524;11.468;2022-10-04T21:07:24;2.47;;;1.77;;
32639;SDS011;19049;52.524;11.468;2022-10-04T21:09:50;4.70;;;1.70;;
32639;SDS011;19049;52.524;11.468;2022-10-04T21:12:27;2.57;;;1.50;;
32639;SDS011;19049;52.524;11.468;2022-10-04T21:17:40;1.77;;;1.50;;
32639;SDS011;19049;52.524;11.468;2022-10-04T21:20:39;2.63;;;1.30;;
32639;SDS011;19049;52.524;11.468;2022-10-04T21:25:45;1.83;;;1.47;;
32639;SDS011;19049;52.524;11.468;2022-10-04T21:28:25;2.43;;;1.40;;
32639;SDS011;19049;52.524;11.468;2022-10-04T21:31:02;2.33;;;1.47;;
32639;SDS011;19049;52.524;11.468;2022-10-04T21:33:29;1.20;;;1.10;;
32639;SDS011;19049;52.524;11.468;2022-10-04T21:35:55;4.03;;;1.40;;
32639;SDS011;19049;52.524;11.468;2022-10-04T21:38:23;2.40;;;1.60;;
32639;SDS011;19049;52.524;11.468;2022-10-04T21:40:49;1.77;;;1.50;;
32639;SDS011;19049;52.524;11.468;2022-10-04T21:43:14;2.47;;;1.33;;
32639;SDS011;19049;52.524;11.468;2022-10-04T21:45:50;2.17;;;1.63;;
32639;SDS011;19049;52.524;11.468;2022-10-04T21:48:16;1.53;;;1.40;;
32639;SDS011;19049;52.524;11.468;2022-10-04T21:50:45;2.40;;;1.67;;
32639;SDS011;19049;52.524;11.468;2022-10-04T21:53:11;2.30;;;1.30;;
32639;SDS011;19049;52.524;11.468;2022-10-04T21:55:37;1.80;;;1.33;;
32639;SDS011;19049;52.524;11.468;2022-10-04T21:58:05;2.70;;;1.17;;
32639;SDS011;19049;52.524;11.468;2022-10-04T22:00:31;1.43;;;1.33;;
32639;SDS011;19049;52.524;11.468;2022-10-04T22:02:59;3.80;;;1.70;;
32639;SDS011;19049;52.524;11.468;2022-10-04T22:05:25;2.73;;;1.80;;
32639;SDS011;19049;52.524;11.468;2022-10-04T22:07:53;2.73;;;1.53;;
32639;SDS011;19049;52.524;11.468;2022-10-04T22:10:19;3.93;;;1.47;;
32639;SDS011;19049;52.524;11.468;2022-10-04T22:12:44;4.13;;;1.77;;
32639;SDS011;19049;52.524;11.468;2022-10-04T22:15:10;2.43;;;1.50;;
32639;SDS011;19049;52.524;11.468;2022-10-04T22:17:42;2.00;;;1.57;;
32639;SDS011;19049;52.524;11.468;2022-10-04T22:20:07;2.30;;;1.50;;
32639;SDS011;19049;52.524;11.468;2022-10-04T22:22:33;1.67;;;1.47;;
32639;SDS011;19049;52.524;11.468;2022-10-04T22:25:09;4.53;;;1.47;;
32639;SDS011;19049;52.524;11.468;2022-10-04T22:27:39;2.13;;;1.67;;
32639;SDS011;19049;52.524;11.468;2022-10-04T22:30:06;1.50;;;1.17;;
32639;SDS011;19049;52.524;11.468;2022-10-04T22:32:41;2.93;;;1.53;;
32639;SDS011;19049;52.524;11.468;2022-10-04T22:35:11;2.70;;;1.57;;
32639;SDS011;19049;52.524;11.468;2022-10-04T22:37:39;1.80;;;1.60;;
32639;SDS011;19049;52.524;11.468;2022-10-04T22:40:06;2.43;;;1.53;;
32639;SDS011;19049;52.524;11.468;2022-10-04T22:42:50;3.10;;;1.70;;
32639;SDS011;19049;52.524;11.468;2022-10-04T22:45:25;3.03;;;1.73;;
32639;SDS011;19049;52.524;11.468;2022-10-04T22:47:58;3.33;;;2.03;;
32639;SDS011;19049;52.524;11.468;2022-10-04T22:50:32;1.50;;;1.40;;
32639;SDS011;19049;52.524;11.468;2022-10-04T22:53:09;1.97;;;1.60;;
32639;SDS011;19049;52.524;11.468;2022-10-04T22:55:41;3.13;;;1.50;;
32639;SDS011;19049;52.524;11.468;2022-10-04T22:58:10;2.47;;;1.50;;
32639;SDS011;19049;52.524;11.468;2022-10-04T23:00:40;2.60;;;1.80;;
32639;SDS011;19049;52.524;11.468;2022-10-04T23:03:49;1.47;;;1.20;;
32639;SDS011;19049;52.524;11.468;2022-10-04T23:05:58;2.20;;;1.40;;
32639;SDS011;19049;52.524;11.468;2022-10-04T23:08:35;2.70;;;1.40;;
32639;SDS011;19049;52.524;11.468;2022-10-04T23:11:01;1.70;;;1.37;;
32639;SDS011;19049;52.524;11.468;2022-10-04T23:13:26;2.87;;;1.30;;
32639;SDS011;19049;52.524;11.468;2022-10-04T23:15:54;2.80;;;1.37;;
32639;SDS011;19049;52.524;11.468;2022-10-04T23:18:23;3.83;;;1.37;;
32639;SDS011;19049;52.524;11.468;2022-10-04T23:20:50;1.80;;;1.43;;
32639;SDS011;19049;52.524;11.468;2022-10-04T23:23:21;2.50;;;1.40;;
32639;SDS011;19049;52.524;11.468;2022-10-04T23:25:52;2.07;;;1.30;;
32639;SDS011;19049;52.524;11.468;2022-10-04T23:28:18;1.60;;;1.27;;
32639;SDS011;19049;52.524;11.468;2022-10-04T23:30:45;1.47;;;1.10;;
32639;SDS011;19049;52.524;11.468;2022-10-04T23:33:22;1.80;;;1.37;;
32639;SDS011;19049;52.524;11.468;2022-10-04T23:36:09;1.17;;;1.07;;
32639;SDS011;19049;52.524;11.468;2022-10-04T23:38:37;1.77;;;1.30;;
32639;SDS011;19049;52.524;11.468;2022-10-04T23:41:07;1.77;;;1.30;;
32639;SDS011;19049;52.524;11.468;2022-10-04T23:43:42;2.67;;;1.47;;
32639;SDS011;19049;52.524;11.468;2022-10-04T23:46:15;2.20;;;1.73;;
32639;SDS011;19049;52.524;11.468;2022-10-04T23:48:44;2.10;;;1.33;;
32639;SDS011;19049;52.524;11.468;2022-10-04T23:51:11;1.93;;;1.37;;
32639;SDS011;19049;52.524;11.468;2022-10-04T23:53:40;1.83;;;1.50;;
32639;SDS011;19049;52.524;11.468;2022-10-04T23:56:11;3.27;;;1.47;;
32639;SDS011;19049;52.524;11.468;2022-10-04T23:58:43;2.90;;;1.37;;
